AEE993 LTFM-LGAV
Flight info
| Callsign | AEE993 |
|---|---|
| Flight time | N/A |
| Altitude | 36000 |
| Route | IVGUS UY226 BIG UN604 OGSIL |
| Aircraft | A320/M-SDE3FGHIRWY/LB1 |
Departure
| Time | 2026-05-05 17:57 |
|---|---|
| Airport | İstanbul Airport (LTFM) |
Arrival
| Time | N/A |
|---|---|
| Airport | Athens Eleftherios Venizelos International Airport (LGAV) |
| Time | Latitude | Longitude | Altitude | Speed | Heading |
|---|---|---|---|---|---|
| 2026-05-05 17:14 | 41.26369 | 28.73832 | 334 ft | 0 kts | 243° |
| 2026-05-05 17:23 | 41.26369 | 28.73833 | 334 ft | 0 kts | 243° |
| 2026-05-05 17:42 | 41.26371 | 28.73839 | 334 ft | 2 kts | 241° |
| 2026-05-05 17:42 | 41.26382 | 28.73861 | 329 ft | 3 kts | 226° |
| 2026-05-05 17:43 | 41.26397 | 28.73879 | 329 ft | 3 kts | 214° |
| 2026-05-05 17:43 | 41.26414 | 28.73893 | 329 ft | 3 kts | 213° |
| 2026-05-05 17:43 | 41.26430 | 28.73907 | 330 ft | 3 kts | 206° |
| 2026-05-05 17:43 | 41.26448 | 28.73917 | 330 ft | 3 kts | 187° |
| 2026-05-05 17:44 | 41.26468 | 28.73917 | 332 ft | 3 kts | 164° |
| 2026-05-05 17:44 | 41.26487 | 28.73907 | 329 ft | 3 kts | 152° |
| 2026-05-05 17:44 | 41.26501 | 28.73897 | 330 ft | 1 kts | 161° |
| 2026-05-05 17:44 | 41.26503 | 28.73896 | 330 ft | 0 kts | 161° |
| 2026-05-05 17:48 | 41.26501 | 28.73897 | 330 ft | 1 kts | 161° |
| 2026-05-05 17:48 | 41.26485 | 28.73904 | 329 ft | 4 kts | 161° |
| 2026-05-05 17:48 | 41.26451 | 28.73920 | 330 ft | 7 kts | 161° |
| 2026-05-05 17:48 | 41.26414 | 28.73966 | 334 ft | 9 kts | 109° |
| 2026-05-05 17:49 | 41.26452 | 28.74024 | 334 ft | 11 kts | 6° |
| 2026-05-05 17:49 | 41.26540 | 28.74025 | 333 ft | 14 kts | 358° |
| 2026-05-05 17:49 | 41.26646 | 28.74025 | 330 ft | 17 kts | 1° |
| 2026-05-05 17:49 | 41.26772 | 28.74016 | 330 ft | 20 kts | 356° |
| 2026-05-05 17:50 | 41.26897 | 28.74022 | 334 ft | 11 kts | 7° |
| 2026-05-05 17:50 | 41.26982 | 28.74014 | 330 ft | 14 kts | 1° |
| 2026-05-05 17:50 | 41.27052 | 28.73945 | 334 ft | 16 kts | 271° |
| 2026-05-05 17:50 | 41.27053 | 28.73789 | 334 ft | 18 kts | 268° |
| 2026-05-05 17:51 | 41.27049 | 28.73607 | 334 ft | 21 kts | 270° |
| 2026-05-05 17:51 | 41.27045 | 28.73399 | 330 ft | 24 kts | 272° |
| 2026-05-05 17:51 | 41.27042 | 28.73166 | 334 ft | 26 kts | 269° |
| 2026-05-05 17:51 | 41.27013 | 28.72996 | 333 ft | 17 kts | 209° |
| 2026-05-05 17:52 | 41.26897 | 28.72987 | 333 ft | 18 kts | 181° |
| 2026-05-05 17:52 | 41.26763 | 28.72990 | 330 ft | 13 kts | 179° |
| 2026-05-05 17:52 | 41.26721 | 28.72970 | 334 ft | 7 kts | 244° |
| 2026-05-05 17:52 | 41.26717 | 28.72943 | 334 ft | 0 kts | 264° |
| 2026-05-05 17:53 | 41.26717 | 28.72941 | 334 ft | 1 kts | 265° |
| 2026-05-05 17:54 | 41.26716 | 28.72919 | 331 ft | 4 kts | 266° |
| 2026-05-05 17:54 | 41.26715 | 28.72849 | 334 ft | 10 kts | 269° |
| 2026-05-05 17:54 | 41.26714 | 28.72745 | 334 ft | 13 kts | 269° |
| 2026-05-05 17:54 | 41.26713 | 28.72676 | 330 ft | 0 kts | 269° |
| 2026-05-05 17:55 | 41.26713 | 28.72675 | 330 ft | 1 kts | 269° |
| 2026-05-05 17:55 | 41.26713 | 28.72664 | 330 ft | 3 kts | 269° |
| 2026-05-05 17:55 | 41.26716 | 28.72560 | 331 ft | 17 kts | 284° |
| 2026-05-05 17:55 | 41.26784 | 28.72514 | 331 ft | 0 kts | 357° |
| 2026-05-05 17:56 | 41.26802 | 28.72512 | 333 ft | 18 kts | 357° |
| 2026-05-05 17:56 | 41.27196 | 28.72514 | 333 ft | 92 kts | 1° |
| 2026-05-05 17:56 | 41.28032 | 28.72496 | 340 ft | 145 kts | 359° |
| 2026-05-05 17:56 | 41.29029 | 28.72470 | 841 ft | 143 kts | 359° |
| 2026-05-05 17:57 | 41.30030 | 28.72449 | 1396 ft | 144 kts | 359° |
| 2026-05-05 17:57 | 41.31036 | 28.72446 | 1942 ft | 146 kts | 0° |
| 2026-05-05 17:57 | 41.32117 | 28.72459 | 2287 ft | 166 kts | 0° |
| 2026-05-05 17:57 | 41.33352 | 28.72474 | 2607 ft | 189 kts | 0° |
| 2026-05-05 17:58 | 41.34764 | 28.72490 | 2980 ft | 215 kts | 0° |
| 2026-05-05 17:58 | 41.36342 | 28.72466 | 3479 ft | 238 kts | 353° |
| 2026-05-05 17:58 | 41.37848 | 28.71499 | 4277 ft | 252 kts | 316° |
| 2026-05-05 17:58 | 41.38659 | 28.69408 | 5268 ft | 264 kts | 285° |
| 2026-05-05 17:59 | 41.38786 | 28.66934 | 6279 ft | 271 kts | 272° |
| 2026-05-05 17:59 | 41.38641 | 28.64381 | 7219 ft | 276 kts | 269° |
| 2026-05-05 17:59 | 41.38435 | 28.61813 | 8113 ft | 280 kts | 269° |
| 2026-05-05 17:59 | 41.38135 | 28.59229 | 8990 ft | 289 kts | 257° |
| 2026-05-05 18:00 | 41.37169 | 28.56799 | 9853 ft | 304 kts | 233° |
| 2026-05-05 18:00 | 41.35595 | 28.54827 | 10390 ft | 323 kts | 224° |
| 2026-05-05 18:00 | 41.33825 | 28.52816 | 10748 ft | 342 kts | 223° |
| 2026-05-05 18:00 | 41.31973 | 28.50772 | 11406 ft | 349 kts | 222° |
| 2026-05-05 18:01 | 41.30080 | 28.48703 | 12133 ft | 354 kts | 222° |
| 2026-05-05 18:01 | 41.28173 | 28.46615 | 12888 ft | 358 kts | 222° |
| 2026-05-05 18:01 | 41.26230 | 28.44504 | 13633 ft | 363 kts | 221° |
| 2026-05-05 18:01 | 41.24246 | 28.42402 | 14331 ft | 367 kts | 221° |
| 2026-05-05 18:02 | 41.22227 | 28.40301 | 15006 ft | 371 kts | 220° |
| 2026-05-05 18:02 | 41.20174 | 28.38178 | 15686 ft | 374 kts | 220° |
| 2026-05-05 18:02 | 41.18114 | 28.36048 | 16365 ft | 377 kts | 220° |
| 2026-05-05 18:02 | 41.16045 | 28.33906 | 17041 ft | 380 kts | 220° |
| 2026-05-05 18:03 | 41.13953 | 28.31736 | 17721 ft | 383 kts | 220° |
| 2026-05-05 18:03 | 41.11844 | 28.29546 | 18385 ft | 386 kts | 220° |
| 2026-05-05 18:03 | 41.09725 | 28.27339 | 18989 ft | 389 kts | 220° |
| 2026-05-05 18:03 | 41.07594 | 28.25118 | 19609 ft | 391 kts | 220° |
| 2026-05-05 18:04 | 41.05440 | 28.22881 | 20241 ft | 394 kts | 220° |
| 2026-05-05 18:04 | 41.03275 | 28.20634 | 20856 ft | 397 kts | 220° |
| 2026-05-05 18:04 | 41.01092 | 28.18371 | 21456 ft | 399 kts | 220° |
| 2026-05-05 18:04 | 40.98898 | 28.16096 | 22042 ft | 402 kts | 220° |
| 2026-05-05 18:05 | 40.96693 | 28.13806 | 22631 ft | 405 kts | 220° |
| 2026-05-05 18:05 | 40.94466 | 28.11501 | 23211 ft | 408 kts | 220° |
| 2026-05-05 18:05 | 40.92221 | 28.09184 | 23783 ft | 411 kts | 220° |
| 2026-05-05 18:05 | 40.89955 | 28.06848 | 24259 ft | 414 kts | 220° |
| 2026-05-05 18:06 | 40.87675 | 28.04499 | 24743 ft | 417 kts | 219° |
| 2026-05-05 18:06 | 40.86159 | 28.02940 | 25053 ft | 419 kts | 219° |
| 2026-05-05 18:06 | 40.83072 | 27.99765 | 25656 ft | 423 kts | 219° |
| 2026-05-05 18:06 | 40.80745 | 27.97372 | 26105 ft | 425 kts | 219° |
| 2026-05-05 18:07 | 40.78404 | 27.94964 | 26550 ft | 428 kts | 219° |
| 2026-05-05 18:07 | 40.76049 | 27.92545 | 26985 ft | 431 kts | 219° |
| 2026-05-05 18:07 | 40.73673 | 27.90109 | 27410 ft | 434 kts | 219° |
| 2026-05-05 18:07 | 40.71285 | 27.87667 | 27820 ft | 436 kts | 219° |
| 2026-05-05 18:08 | 40.68878 | 27.85209 | 28226 ft | 439 kts | 220° |
| 2026-05-05 18:08 | 40.66455 | 27.82734 | 28622 ft | 442 kts | 220° |
| 2026-05-05 18:08 | 40.64014 | 27.80242 | 29014 ft | 445 kts | 220° |
| 2026-05-05 18:08 | 40.61558 | 27.77735 | 29409 ft | 448 kts | 220° |
| 2026-05-05 18:09 | 40.59086 | 27.75211 | 29785 ft | 451 kts | 220° |
| 2026-05-05 18:09 | 40.56599 | 27.72673 | 30168 ft | 454 kts | 220° |
| 2026-05-05 18:09 | 40.54090 | 27.70116 | 30499 ft | 457 kts | 220° |
| 2026-05-05 18:09 | 40.51569 | 27.67552 | 30839 ft | 459 kts | 220° |
| 2026-05-05 18:10 | 40.49037 | 27.64981 | 31177 ft | 462 kts | 220° |
| 2026-05-05 18:10 | 40.46490 | 27.62397 | 31508 ft | 464 kts | 221° |
| 2026-05-05 18:10 | 40.43933 | 27.59807 | 31858 ft | 465 kts | 221° |
| 2026-05-05 18:10 | 40.41371 | 27.57215 | 32320 ft | 464 kts | 221° |
| 2026-05-05 18:11 | 40.38819 | 27.54637 | 32769 ft | 463 kts | 221° |
| 2026-05-05 18:11 | 40.36272 | 27.52062 | 33228 ft | 462 kts | 221° |
| 2026-05-05 18:11 | 40.33729 | 27.49490 | 33671 ft | 462 kts | 221° |
| 2026-05-05 18:11 | 40.31181 | 27.46913 | 34124 ft | 462 kts | 222° |
| 2026-05-05 18:12 | 40.28640 | 27.44349 | 34498 ft | 461 kts | 221° |
| 2026-05-05 18:12 | 40.26096 | 27.41790 | 34889 ft | 460 kts | 221° |
| 2026-05-05 18:12 | 40.23556 | 27.39240 | 35283 ft | 459 kts | 221° |
| 2026-05-05 18:12 | 40.21028 | 27.36704 | 35675 ft | 458 kts | 221° |
| 2026-05-05 18:13 | 40.18468 | 27.34134 | 35992 ft | 457 kts | 221° |
| 2026-05-05 18:13 | 40.13452 | 27.29108 | 36084 ft | 452 kts | 221° |
| 2026-05-05 18:14 | 40.08439 | 27.24079 | 36083 ft | 465 kts | 221° |
| 2026-05-05 18:14 | 40.03236 | 27.18860 | 36082 ft | 477 kts | 221° |
| 2026-05-05 18:15 | 39.97944 | 27.13598 | 36081 ft | 480 kts | 221° |
| 2026-05-05 18:15 | 39.92599 | 27.08289 | 36083 ft | 480 kts | 221° |
| 2026-05-05 18:16 | 39.87289 | 27.03023 | 36077 ft | 480 kts | 221° |
| 2026-05-05 18:16 | 39.81978 | 26.97765 | 36071 ft | 480 kts | 221° |
| 2026-05-05 18:17 | 39.76664 | 26.92515 | 36067 ft | 480 kts | 221° |
| 2026-05-05 18:17 | 39.71355 | 26.87271 | 36065 ft | 479 kts | 221° |
| 2026-05-05 18:18 | 39.66039 | 26.82036 | 36062 ft | 479 kts | 222° |
| 2026-05-05 18:18 | 39.60725 | 26.76813 | 36071 ft | 479 kts | 221° |
| 2026-05-05 18:19 | 39.55403 | 26.71606 | 36065 ft | 479 kts | 222° |
| 2026-05-05 18:19 | 39.50083 | 26.66399 | 36067 ft | 479 kts | 222° |
| 2026-05-05 18:20 | 39.44759 | 26.61188 | 36062 ft | 479 kts | 222° |
| 2026-05-05 18:20 | 39.39981 | 26.55343 | 36059 ft | 470 kts | 234° |
| 2026-05-05 18:21 | 39.35790 | 26.48877 | 36053 ft | 469 kts | 236° |
| 2026-05-05 18:21 | 39.31665 | 26.42351 | 36050 ft | 470 kts | 236° |
| 2026-05-05 18:22 | 39.27414 | 26.35935 | 36051 ft | 471 kts | 234° |
| 2026-05-05 18:22 | 39.23092 | 26.29584 | 36055 ft | 471 kts | 234° |
| 2026-05-05 18:23 | 39.18771 | 26.23232 | 36063 ft | 471 kts | 234° |
| 2026-05-05 18:23 | 39.14469 | 26.16880 | 36063 ft | 470 kts | 234° |
| 2026-05-05 18:24 | 39.10171 | 26.10524 | 36063 ft | 470 kts | 234° |
| 2026-05-05 18:24 | 39.05868 | 26.04189 | 36062 ft | 470 kts | 234° |
| 2026-05-05 18:25 | 39.01552 | 25.97856 | 36065 ft | 470 kts | 234° |
| 2026-05-05 18:25 | 38.97238 | 25.91538 | 36071 ft | 470 kts | 234° |
| 2026-05-05 18:26 | 38.92929 | 25.85228 | 36067 ft | 470 kts | 234° |
| 2026-05-05 18:26 | 38.88614 | 25.78919 | 36071 ft | 470 kts | 234° |
| 2026-05-05 18:27 | 38.84292 | 25.72624 | 36071 ft | 469 kts | 234° |
| 2026-05-05 18:27 | 38.79982 | 25.66355 | 36066 ft | 463 kts | 234° |
| 2026-05-05 18:27 | 38.77875 | 25.63310 | 35838 ft | 452 kts | 234° |
| 2026-05-05 18:28 | 38.73781 | 25.57410 | 35345 ft | 435 kts | 235° |
| 2026-05-05 18:28 | 38.71786 | 25.54521 | 35090 ft | 431 kts | 235° |
| 2026-05-05 18:28 | 38.69809 | 25.51651 | 34848 ft | 429 kts | 236° |
| 2026-05-05 18:29 | 38.67841 | 25.48796 | 34609 ft | 426 kts | 236° |
| 2026-05-05 18:29 | 38.65893 | 25.45973 | 34225 ft | 422 kts | 236° |
| 2026-05-05 18:29 | 38.63953 | 25.43168 | 33713 ft | 420 kts | 236° |
| 2026-05-05 18:29 | 38.62024 | 25.40384 | 33249 ft | 416 kts | 236° |
| 2026-05-05 18:30 | 38.60106 | 25.37625 | 32788 ft | 413 kts | 236° |
| 2026-05-05 18:30 | 38.58201 | 25.34891 | 32332 ft | 410 kts | 236° |
| 2026-05-05 18:30 | 38.56307 | 25.32171 | 31882 ft | 408 kts | 237° |
| 2026-05-05 18:30 | 38.54427 | 25.29467 | 31439 ft | 405 kts | 237° |
| 2026-05-05 18:31 | 38.53167 | 25.27657 | 31150 ft | 404 kts | 237° |
| 2026-05-05 18:31 | 38.50698 | 25.24118 | 30579 ft | 402 kts | 237° |
| 2026-05-05 18:31 | 38.49446 | 25.22326 | 30297 ft | 401 kts | 237° |
| 2026-05-05 18:31 | 38.47596 | 25.19677 | 29841 ft | 399 kts | 237° |
| 2026-05-05 18:32 | 38.45756 | 25.17043 | 29429 ft | 396 kts | 237° |
| 2026-05-05 18:32 | 38.43930 | 25.14432 | 29038 ft | 393 kts | 237° |
| 2026-05-05 18:32 | 38.42114 | 25.11838 | 28643 ft | 391 kts | 237° |
| 2026-05-05 18:32 | 38.40310 | 25.09262 | 28253 ft | 389 kts | 237° |
| 2026-05-05 18:33 | 38.38514 | 25.06700 | 27863 ft | 387 kts | 237° |
| 2026-05-05 18:33 | 38.36726 | 25.04152 | 27471 ft | 384 kts | 237° |
| 2026-05-05 18:33 | 38.34948 | 25.01617 | 27072 ft | 383 kts | 237° |
| 2026-05-05 18:33 | 38.33176 | 24.99095 | 26664 ft | 381 kts | 237° |
| 2026-05-05 18:34 | 38.31412 | 24.96585 | 26257 ft | 379 kts | 237° |
| 2026-05-05 18:34 | 38.29654 | 24.94086 | 25846 ft | 378 kts | 236° |
| 2026-05-05 18:34 | 38.28082 | 24.91856 | 25473 ft | 377 kts | 236° |
| 2026-05-05 18:34 | 38.26336 | 24.89376 | 25042 ft | 376 kts | 236° |
| 2026-05-05 18:35 | 38.24590 | 24.86948 | 24920 ft | 367 kts | 235° |
| 2026-05-05 18:35 | 38.22844 | 24.84608 | 24553 ft | 365 kts | 234° |
| 2026-05-05 18:35 | 38.21076 | 24.82278 | 24107 ft | 366 kts | 233° |
| 2026-05-05 18:35 | 38.19303 | 24.79960 | 23681 ft | 365 kts | 233° |
| 2026-05-05 18:36 | 38.17534 | 24.77649 | 23199 ft | 364 kts | 233° |
| 2026-05-05 18:36 | 38.15774 | 24.75351 | 22771 ft | 362 kts | 233° |
| 2026-05-05 18:36 | 38.14025 | 24.73057 | 22343 ft | 359 kts | 233° |
| 2026-05-05 18:36 | 38.12294 | 24.70780 | 21917 ft | 357 kts | 232° |
| 2026-05-05 18:37 | 38.10575 | 24.68517 | 21497 ft | 355 kts | 232° |
| 2026-05-05 18:37 | 38.08836 | 24.66234 | 21067 ft | 354 kts | 232° |
| 2026-05-05 18:37 | 38.07130 | 24.63992 | 20649 ft | 352 kts | 232° |
| 2026-05-05 18:37 | 38.05458 | 24.61794 | 20233 ft | 351 kts | 232° |
| 2026-05-05 18:38 | 38.03765 | 24.59569 | 19815 ft | 350 kts | 232° |
| 2026-05-05 18:38 | 38.02075 | 24.57351 | 19390 ft | 349 kts | 231° |
| 2026-05-05 18:38 | 38.00364 | 24.55108 | 18965 ft | 350 kts | 231° |
| 2026-05-05 18:38 | 37.98693 | 24.52920 | 18560 ft | 349 kts | 231° |
| 2026-05-05 18:39 | 37.97003 | 24.50708 | 18081 ft | 349 kts | 231° |
| 2026-05-05 18:39 | 37.95298 | 24.48478 | 17655 ft | 347 kts | 231° |
| 2026-05-05 18:39 | 37.93623 | 24.46294 | 17235 ft | 344 kts | 230° |
| 2026-05-05 18:39 | 37.91998 | 24.44178 | 16840 ft | 342 kts | 230° |
| 2026-05-05 18:40 | 37.90440 | 24.42150 | 16444 ft | 341 kts | 230° |
| 2026-05-05 18:40 | 37.88793 | 24.40004 | 16042 ft | 339 kts | 230° |
| 2026-05-05 18:40 | 37.87156 | 24.37870 | 15639 ft | 337 kts | 230° |
| 2026-05-05 18:40 | 37.85524 | 24.35746 | 15235 ft | 336 kts | 229° |
| 2026-05-05 18:41 | 37.83896 | 24.33628 | 14827 ft | 335 kts | 229° |
| 2026-05-05 18:41 | 37.82272 | 24.31513 | 14424 ft | 334 kts | 229° |
| 2026-05-05 18:41 | 37.80654 | 24.29406 | 14030 ft | 334 kts | 229° |
| 2026-05-05 18:41 | 37.79061 | 24.27337 | 13935 ft | 322 kts | 229° |
| 2026-05-05 18:42 | 37.77523 | 24.25346 | 13855 ft | 311 kts | 229° |
| 2026-05-05 18:42 | 37.76040 | 24.23431 | 13665 ft | 304 kts | 229° |
| 2026-05-05 18:42 | 37.74555 | 24.21512 | 13308 ft | 303 kts | 229° |
| 2026-05-05 18:42 | 37.73080 | 24.19602 | 12935 ft | 303 kts | 229° |
| 2026-05-05 18:43 | 37.71610 | 24.17697 | 12563 ft | 303 kts | 229° |
| 2026-05-05 18:43 | 37.70132 | 24.15783 | 12189 ft | 304 kts | 229° |
| 2026-05-05 18:43 | 37.68656 | 24.13873 | 11814 ft | 304 kts | 229° |
| 2026-05-05 18:43 | 37.67177 | 24.11962 | 11435 ft | 305 kts | 228° |
| 2026-05-05 18:44 | 37.65698 | 24.10053 | 11059 ft | 305 kts | 228° |
| 2026-05-05 18:44 | 37.64215 | 24.08136 | 10669 ft | 306 kts | 228° |
| 2026-05-05 18:44 | 37.62728 | 24.06216 | 10292 ft | 306 kts | 228° |
| 2026-05-05 18:44 | 37.61236 | 24.04294 | 9900 ft | 307 kts | 228° |
| 2026-05-05 18:45 | 37.59741 | 24.02370 | 9495 ft | 307 kts | 228° |
| 2026-05-05 18:45 | 37.58252 | 24.00454 | 9140 ft | 305 kts | 228° |
| 2026-05-05 18:45 | 37.56814 | 23.98506 | 8776 ft | 301 kts | 237° |
| 2026-05-05 18:45 | 37.55981 | 23.96152 | 8365 ft | 293 kts | 265° |
| 2026-05-05 18:46 | 37.56075 | 23.93667 | 7992 ft | 283 kts | 290° |
| 2026-05-05 18:46 | 37.56999 | 23.91546 | 7659 ft | 274 kts | 314° |
| 2026-05-05 18:46 | 37.58328 | 23.89846 | 7334 ft | 271 kts | 317° |
| 2026-05-05 18:46 | 37.59673 | 23.88170 | 6984 ft | 270 kts | 317° |
| 2026-05-05 18:47 | 37.61011 | 23.86501 | 6619 ft | 270 kts | 317° |
| 2026-05-05 18:47 | 37.62344 | 23.84836 | 6248 ft | 270 kts | 317° |
| 2026-05-05 18:47 | 37.63667 | 23.83176 | 5855 ft | 270 kts | 316° |
| 2026-05-05 18:47 | 37.64990 | 23.81511 | 5504 ft | 269 kts | 316° |
| 2026-05-05 18:48 | 37.66305 | 23.79853 | 5154 ft | 267 kts | 316° |
| 2026-05-05 18:48 | 37.67619 | 23.78197 | 4814 ft | 266 kts | 316° |
| 2026-05-05 18:48 | 37.68978 | 23.76617 | 4504 ft | 263 kts | 325° |
| 2026-05-05 18:48 | 37.70567 | 23.75578 | 4351 ft | 253 kts | 342° |
| 2026-05-05 18:49 | 37.72263 | 23.75179 | 4235 ft | 244 kts | 358° |
| 2026-05-05 18:49 | 37.73923 | 23.75387 | 4106 ft | 236 kts | 13° |
| 2026-05-05 18:49 | 37.75417 | 23.76124 | 4005 ft | 227 kts | 28° |
| 2026-05-05 18:49 | 37.76679 | 23.77232 | 3926 ft | 216 kts | 35° |
| 2026-05-05 18:50 | 37.77863 | 23.78350 | 3746 ft | 210 kts | 35° |
| 2026-05-05 18:50 | 37.79026 | 23.79448 | 3511 ft | 208 kts | 35° |
| 2026-05-05 18:50 | 37.80177 | 23.80536 | 3231 ft | 207 kts | 35° |
| 2026-05-05 18:50 | 37.81330 | 23.81626 | 2965 ft | 206 kts | 35° |
| 2026-05-05 18:51 | 37.82496 | 23.82729 | 2699 ft | 207 kts | 36° |
| 2026-05-05 18:51 | 37.83651 | 23.83824 | 2423 ft | 208 kts | 36° |
| 2026-05-05 18:51 | 37.84794 | 23.84906 | 2154 ft | 208 kts | 36° |
| 2026-05-05 18:51 | 37.85964 | 23.86015 | 1874 ft | 208 kts | 36° |
| 2026-05-05 18:52 | 37.87107 | 23.87099 | 1596 ft | 207 kts | 36° |
| 2026-05-05 18:52 | 37.88259 | 23.88192 | 1325 ft | 206 kts | 36° |
| 2026-05-05 18:52 | 37.89396 | 23.89271 | 1041 ft | 204 kts | 36° |
| 2026-05-05 18:52 | 37.90545 | 23.90361 | 756 ft | 202 kts | 36° |
| 2026-05-05 18:53 | 37.91639 | 23.91400 | 484 ft | 195 kts | 36° |
| 2026-05-05 18:53 | 37.92688 | 23.92393 | 324 ft | 176 kts | 35° |
| 2026-05-05 18:53 | 37.93619 | 23.93256 | 301 ft | 158 kts | 40° |
| 2026-05-05 18:53 | 37.94304 | 23.94062 | 315 ft | 122 kts | 43° |